Time;durP1;ratioP1;P1;durP2;ratioP2;P2;SDS_P1;SDS_P2;PMS_P1;PMS_P2;Temp;Humidity;BMP_temperature;BMP_pressure;BME280_temperature;BME280_humidity;BME280_pressure;Samples;Min_cycle;Max_cycle;Signal;HPM_P1;HPM_P2
2022/06/16 00:00:15;;;;;;;5.63;4.80;;;;;;;17.99;43.15;101214.56;681700;29;1499;-77
2022/06/16 00:00:36;;;;;;;5.72;4.63;;;;;;;18.02;43.10;101217.19;679383;29;1394;-77
2022/06/16 00:00:57;;;;;;;5.53;4.63;;;;;;;18.01;43.01;101223.38;682515;29;801;-77
2022/06/16 00:01:18;;;;;;;5.32;4.63;;;;;;;18.01;43.23;101217.22;681203;29;1798;-77
2022/06/16 00:01:45;;;;;;;5.00;4.50;;;;;;;18.05;43.12;101218.97;682515;29;749;-77
2022/06/16 00:02:07;;;;;;;5.10;4.60;;;;;;;18.11;43.16;101236.59;677755;29;1636;-76
2022/06/16 00:02:27;;;;;;;4.82;4.32;;;;;;;18.01;43.06;101220.72;685119;28;1348;-77
2022/06/16 00:02:50;;;;;;;5.10;4.40;;;;;;;18.05;42.94;101233.09;684996;28;1270;-77
2022/06/16 00:03:11;;;;;;;5.40;4.40;;;;;;;18.01;43.01;101225.16;679526;29;1582;-77
2022/06/16 00:03:32;;;;;;;5.50;4.40;;;;;;;18.05;43.16;101222.53;680743;29;1544;-77
2022/06/16 00:03:53;;;;;;;4.72;4.20;;;;;;;18.08;43.08;101235.72;682597;29;753;-77
2022/06/16 00:04:14;;;;;;;6.57;4.57;;;;;;;18.08;43.33;101227.81;683036;28;1517;-77
2022/06/16 00:04:36;;;;;;;7.20;4.70;;;;;;;18.04;43.13;101228.69;682360;29;1895;-77
2022/06/16 00:04:57;;;;;;;7.80;4.90;;;;;;;18.02;43.07;101224.25;682491;29;835;-77
2022/06/16 00:05:25;;;;;;;6.03;4.75;;;;;;;18.09;43.07;101234.84;685845;28;1866;-76
2022/06/16 00:05:46;;;;;;;6.90;4.97;;;;;;;18.07;43.25;101231.31;686076;28;1362;-77
2022/06/16 00:06:07;;;;;;;6.97;4.90;;;;;;;18.03;43.13;101224.28;682321;28;1498;-77
2022/06/16 00:06:28;;;;;;;6.43;4.78;;;;;;;18.02;43.16;101214.56;687632;28;1059;-76
2022/06/16 00:07:07;;;;;;;5.40;4.40;;;;;;;18.12;42.87;101226.06;685003;28;1669;-77
2022/06/16 00:07:27;;;;;;;6.28;4.53;;;;;;;18.08;42.88;101208.44;680295;28;1272;-77
2022/06/16 00:07:49;;;;;;;7.75;4.90;;;;;;;18.14;42.70;101218.16;684319;28;950;-77
2022/06/16 00:08:13;;;;;;;9.20;5.03;;;;;;;18.14;42.78;101220.78;679983;29;1825;-77
2022/06/16 00:08:33;;;;;;;7.90;4.90;;;;;;;18.09;42.74;101195.22;676546;29;1124;-77
2022/06/16 00:08:54;;;;;;;8.27;4.85;;;;;;;18.13;42.55;101206.69;676605;29;1350;-77
2022/06/16 00:09:15;;;;;;;5.90;4.68;;;;;;;18.13;42.81;101204.03;681972;28;1475;-77
2022/06/16 00:09:36;;;;;;;6.80;4.80;;;;;;;18.11;42.78;101197.88;679395;29;967;-77
2022/06/16 00:09:56;;;;;;;7.82;4.88;;;;;;;18.09;42.76;101192.59;685022;28;1233;-77
2022/06/16 00:10:19;;;;;;;7.57;4.80;;;;;;;18.15;42.56;101196.16;685547;28;1347;-77
2022/06/16 00:11:20;;;;;;;6.70;5.10;;;;;;;18.09;42.69;101186.44;681480;29;2111;-77
2022/06/16 00:11:41;;;;;;;5.63;4.90;;;;;;;18.14;42.75;101186.44;682333;29;1262;-77
2022/06/16 00:12:02;;;;;;;5.47;4.68;;;;;;;18.07;42.69;101185.56;682304;29;1293;-77
2022/06/16 00:12:23;;;;;;;5.15;4.53;;;;;;;18.18;42.62;101196.16;679032;29;1855;-77
2022/06/16 00:12:44;;;;;;;5.70;4.57;;;;;;;18.18;42.73;101194.41;682363;29;1245;-77
2022/06/16 00:13:05;;;;;;;6.55;4.63;;;;;;;18.09;42.73;101189.94;683105;28;1250;-77
2022/06/16 00:13:28;;;;;;;6.63;4.73;;;;;;;18.09;42.52;101189.94;683870;28;1445;-77
2022/06/16 00:13:51;;;;;;;6.90;4.90;;;;;;;18.18;42.58;101204.09;682426;28;1093;-77
2022/06/16 00:14:23;;;;;;;5.80;4.60;;;;;;;18.13;42.56;101195.25;684643;28;1824;-77
2022/06/16 00:14:43;;;;;;;5.40;4.30;;;;;;;18.09;42.67;101200.50;684930;28;1124;-77
2022/06/16 00:15:07;;;;;;;6.37;4.40;;;;;;;18.15;42.58;101214.66;677817;29;1114;-77
2022/06/16 00:15:29;;;;;;;7.10;4.40;;;;;;;18.13;42.62;101214.59;682402;29;1481;-78
2022/06/16 00:15:50;;;;;;;6.50;4.35;;;;;;;18.03;42.66;101200.50;682382;29;1252;-77
2022/06/16 00:16:12;;;;;;;4.90;4.40;;;;;;;18.06;42.81;101205.78;683569;28;1367;-77
2022/06/16 00:16:33;;;;;;;6.05;4.82;;;;;;;18.11;42.53;101213.72;685065;28;1265;-77
2022/06/16 00:16:55;;;;;;;5.85;4.70;;;;;;;18.05;42.66;101211.06;679643;29;1352;-77
2022/06/16 00:17:15;;;;;;;6.15;4.70;;;;;;;18.05;42.68;101219.88;679539;29;1105;-77
2022/06/16 00:17:36;;;;;;;5.20;4.60;;;;;;;18.03;42.75;101215.47;677164;29;1176;-77
2022/06/16 00:17:58;;;;;;;5.50;4.68;;;;;;;18.04;42.86;101219.84;677307;29;753;-76
2022/06/16 00:18:18;;;;;;;6.57;4.72;;;;;;;18.05;42.89;101219.88;679519;29;1706;-77
2022/06/16 00:18:41;;;;;;;7.37;4.80;;;;;;;18.03;42.79;101226.91;682252;29;1056;-77
2022/06/16 00:19:02;;;;;;;7.30;4.70;;;;;;;18.03;42.91;101226.91;684868;28;1355;-77
2022/06/16 00:19:22;;;;;;;5.75;4.45;;;;;;;18.02;42.85;101230.41;682417;28;1845;-77
2022/06/16 00:19:43;;;;;;;7.50;4.50;;;;;;;17.97;43.06;101210.16;676477;29;1127;-77
2022/06/16 00:20:07;;;;;;;6.50;4.22;;;;;;;17.93;43.05;101214.53;677857;29;1176;-77
2022/06/16 00:20:28;;;;;;;8.30;4.60;;;;;;;17.88;43.00;101203.94;677131;29;1304;-77
2022/06/16 00:20:49;;;;;;;6.15;4.55;;;;;;;17.88;42.91;101200.44;677019;29;1353;-77
2022/06/16 00:21:10;;;;;;;6.70;4.90;;;;;;;17.99;43.09;101218.94;680144;29;1765;-77
2022/06/16 00:21:31;;;;;;;5.25;4.70;;;;;;;17.92;42.93;101208.38;674374;29;1212;-77
2022/06/16 00:21:52;;;;;;;7.43;4.85;;;;;;;17.92;42.73;101200.47;674458;29;791;-77
2022/06/16 00:22:13;;;;;;;7.93;4.85;;;;;;;17.94;43.08;101208.38;678303;29;1161;-76
2022/06/16 00:22:37;;;;;;;8.70;4.90;;;;;;;17.99;43.16;101211.03;681763;29;1287;-78
2022/06/16 00:22:58;;;;;;;7.28;4.85;;;;;;;17.93;43.07;101203.97;681955;29;1206;-76
2022/06/16 00:23:19;;;;;;;7.10;5.00;;;;;;;17.96;43.16;101198.72;684865;28;1406;-77
2022/06/16 00:23:40;;;;;;;6.93;4.78;;;;;;;17.95;42.97;101196.97;681786;29;1381;-77
2022/06/16 00:24:01;;;;;;;6.72;4.60;;;;;;;17.92;42.89;101192.53;680557;28;1975;-77
2022/06/16 00:24:26;;;;;;;7.32;4.60;;;;;;;17.89;42.87;101191.66;685600;28;1786;-77
2022/06/16 00:24:55;;;;;;;9.60;5.00;;;;;;;17.95;42.84;101203.09;685189;28;812;-77
2022/06/16 00:25:17;;;;;;;7.57;4.70;;;;;;;17.95;42.94;101202.25;684707;28;1727;-77
2022/06/16 00:25:38;;;;;;;7.97;4.85;;;;;;;17.93;43.15;101198.69;684416;28;1277;-77
2022/06/16 00:25:59;;;;;;;7.77;5.10;;;;;;;17.96;42.82;101198.72;682335;29;1321;-77
2022/06/16 00:26:23;;;;;;;10.10;5.50;;;;;;;17.99;43.06;101208.38;682066;29;1880;-77
2022/06/16 00:26:43;;;;;;;8.60;5.20;;;;;;;17.94;42.95;101206.63;684458;28;1270;-77
2022/06/16 00:27:05;;;;;;;6.70;4.70;;;;;;;17.90;42.91;101198.69;684229;28;1275;-77
2022/06/16 00:27:26;;;;;;;5.70;4.40;;;;;;;17.94;42.89;101208.38;679726;29;839;-77
2022/06/16 00:27:46;;;;;;;6.03;4.33;;;;;;;17.95;42.96;101211.03;679867;29;965;-77
2022/06/16 00:28:08;;;;;;;6.47;4.70;;;;;;;17.92;43.01;101204.84;679460;29;1133;-76
2022/06/16 00:28:29;;;;;;;5.20;4.57;;;;;;;17.95;43.02;101221.59;681531;29;1281;-77
2022/06/16 00:28:50;;;;;;;5.30;4.50;;;;;;;17.87;43.18;101207.47;682024;29;1711;-79
2022/06/16 00:29:12;;;;;;;5.40;4.30;;;;;;;17.88;43.17;101203.09;679549;29;1085;-79
2022/06/16 00:29:33;;;;;;;6.90;4.47;;;;;;;17.88;43.41;101208.38;676658;29;1230;-79
2022/06/16 00:29:55;;;;;;;6.35;4.60;;;;;;;17.86;43.24;101210.09;677097;29;808;-80
2022/06/16 00:30:16;;;;;;;6.90;4.65;;;;;;;17.85;43.54;101217.16;679103;29;1385;-79
2022/06/16 00:30:37;;;;;;;5.07;4.30;;;;;;;17.78;43.54;101205.66;679671;29;1164;-79
2022/06/16 00:31:03;;;;;;;6.30;4.30;;;;;;;17.83;43.35;101220.66;682192;29;1189;-79
2022/06/16 00:31:24;;;;;;;6.00;4.35;;;;;;;17.75;43.32;101215.31;679942;29;1832;-79
2022/06/16 00:31:44;;;;;;;6.30;4.50;;;;;;;17.73;43.40;101211.78;677107;29;1451;-79
2022/06/16 00:32:05;;;;;;;4.97;4.45;;;;;;;17.73;43.47;101212.69;678240;29;1261;-79
2022/06/16 00:32:26;;;;;;;5.33;4.60;;;;;;;17.71;43.46;101214.44;679687;29;1823;-79
2022/06/16 00:32:47;;;;;;;6.20;4.80;;;;;;;17.73;43.59;101225.88;679706;29;1203;-79
2022/06/16 00:33:09;;;;;;;6.25;4.60;;;;;;;17.75;43.50;101234.69;680095;29;1603;-79
2022/06/16 00:33:30;;;;;;;5.40;4.50;;;;;;;17.69;43.43;101224.09;685222;28;1353;-78
2022/06/16 00:33:51;;;;;;;4.85;4.35;;;;;;;17.75;43.40;101237.34;682063;29;1439;-76
2022/06/16 00:34:13;;;;;;;5.10;4.60;;;;;;;17.74;43.65;101238.22;682007;28;1371;-77
2022/06/16 00:34:34;;;;;;;5.53;4.60;;;;;;;17.65;43.74;101225.84;677093;29;1095;-77
2022/06/16 00:34:54;;;;;;;5.70;4.60;;;;;;;17.66;43.71;101230.22;679805;29;1132;-77
2022/06/16 00:35:15;;;;;;;5.30;4.57;;;;;;;17.71;43.89;101240.84;679845;29;1702;-77
2022/06/16 00:35:36;;;;;;;5.50;4.60;;;;;;;17.66;43.83;101224.09;682420;29;1054;-77
2022/06/16 00:35:57;;;;;;;5.85;4.60;;;;;;;17.70;43.69;101233.78;681274;29;1185;-77
2022/06/16 00:36:18;;;;;;;6.68;4.53;;;;;;;17.63;43.77;101216.13;683242;28;1487;-77
2022/06/16 00:36:39;;;;;;;6.00;4.50;;;;;;;17.69;43.67;101226.72;682031;28;1572;-77
2022/06/16 00:37:00;;;;;;;6.07;4.55;;;;;;;17.67;43.66;101224.09;681067;29;1057;-77
2022/06/16 00:37:21;;;;;;;5.78;4.60;;;;;;;17.69;43.69;101226.72;682191;29;1226;-77
2022/06/16 00:37:41;;;;;;;5.63;4.70;;;;;;;17.69;43.57;101224.09;679737;29;1246;-77
2022/06/16 00:38:02;;;;;;;5.97;4.70;;;;;;;17.70;43.61;101222.34;680212;29;1109;-80
2022/06/16 00:38:24;;;;;;;6.55;4.90;;;;;;;17.74;43.76;101232.94;679807;29;2015;-77
2022/06/16 00:38:45;;;;;;;9.07;4.75;;;;;;;17.73;43.64;101227.63;676924;29;1470;-76
2022/06/16 00:39:06;;;;;;;8.80;4.68;;;;;;;17.72;43.72;101231.16;680698;29;1360;-77
2022/06/16 00:39:26;;;;;;;7.45;4.60;;;;;;;17.70;43.76;101222.34;679140;29;1338;-77
2022/06/16 00:39:47;;;;;;;5.63;4.85;;;;;;;17.69;44.08;101221.44;681253;29;1421;-77
2022/06/16 00:40:09;;;;;;;6.13;4.95;;;;;;;17.74;43.90;101225.00;685468;28;1578;-77
2022/06/16 00:40:30;;;;;;;6.93;5.15;;;;;;;17.73;43.72;101219.72;682388;29;1336;-77
2022/06/16 00:40:52;;;;;;;6.28;4.75;;;;;;;17.68;43.96;101211.78;679707;29;1400;-77
2022/06/16 00:41:13;;;;;;;5.20;4.47;;;;;;;17.67;43.91;101213.56;679528;29;1318;-77
2022/06/16 00:41:34;;;;;;;5.00;4.50;;;;;;;17.74;43.70;101218.84;681649;29;1955;-77
2022/06/16 00:41:55;;;;;;;6.63;4.60;;;;;;;17.67;43.74;101210.00;677002;29;1355;-77
2022/06/16 00:42:20;;;;;;;8.02;4.88;;;;;;;17.73;43.92;101225.88;680905;29;1730;-77
2022/06/16 00:42:44;;;;;;;8.98;4.70;;;;;;;17.63;43.75;101200.31;687511;28;922;-77
2022/06/16 00:43:05;;;;;;;6.90;4.80;;;;;;;17.67;44.00;101207.38;685745;28;1445;-78
2022/06/16 00:43:27;;;;;;;5.80;4.95;;;;;;;17.71;44.02;101222.38;682275;28;2009;-77
2022/06/16 00:43:48;;;;;;;5.28;4.78;;;;;;;17.66;43.88;101219.69;679514;29;1238;-77
2022/06/16 00:44:36;;;;;;;5.20;4.67;;;;;;;17.69;43.96;101218.81;682962;28;1918;-77
2022/06/16 00:44:57;;;;;;;6.38;5.10;;;;;;;17.69;43.97;101224.09;684393;28;901;-76
2022/06/16 00:45:48;;;;;;;6.43;4.97;;;;;;;17.74;44.05;101229.41;683961;28;1471;-76
2022/06/16 00:46:16;;;;;;;5.32;4.82;;;;;;;17.65;43.88;101220.56;681544;29;1692;-76
2022/06/16 00:46:36;;;;;;;5.40;4.90;;;;;;;17.72;43.83;101232.03;690166;28;1163;-77
2022/06/16 00:46:57;;;;;;;6.88;5.03;;;;;;;17.66;43.90;101227.59;679813;29;1196;-77
2022/06/16 00:47:20;;;;;;;7.13;5.10;;;;;;;17.64;43.85;101228.47;679300;29;1890;-77
2022/06/16 00:47:41;;;;;;;7.10;4.95;;;;;;;17.63;43.74;101224.94;679628;29;1092;-77
2022/06/16 00:48:01;;;;;;;5.88;4.78;;;;;;;17.66;43.76;101226.72;684638;28;1127;-77
2022/06/16 00:48:28;;;;;;;5.68;4.68;;;;;;;17.70;43.81;101233.78;682852;28;1380;-78
2022/06/16 00:48:52;;;;;;;5.70;4.40;;;;;;;17.71;43.73;101234.66;684968;28;1298;-77
2022/06/16 00:49:14;;;;;;;6.43;4.95;;;;;;;17.68;43.90;101235.53;681577;29;1368;-77
2022/06/16 00:49:40;;;;;;;6.65;5.22;;;;;;;17.59;43.92;101219.66;679355;29;983;-77
2022/06/16 00:50:04;;;;;;;7.22;5.25;;;;;;;17.61;43.91;101229.34;677354;29;987;-77
2022/06/16 00:50:25;;;;;;;7.00;4.70;;;;;;;17.62;43.91;101235.47;677234;29;1850;-77
2022/06/16 00:50:53;;;;;;;6.75;4.55;;;;;;;17.66;44.02;101239.94;679236;29;1648;-77
2022/06/16 00:51:35;;;;;;;7.13;4.80;;;;;;;17.64;44.05;101239.91;679252;29;1858;-76
2022/06/16 00:52:00;;;;;;;6.10;4.90;;;;;;;17.62;43.92;101240.75;677392;29;1204;-76
2022/06/16 00:52:26;;;;;;;5.90;4.90;;;;;;;17.60;44.06;101232.84;682161;28;1676;-77
2022/06/16 00:53:25;;;;;;;5.70;4.80;;;;;;;17.65;43.91;101235.53;687107;28;949;-77
2022/06/16 00:53:46;;;;;;;6.40;4.70;;;;;;;17.53;43.87;101223.13;681219;28;2017;-76
2022/06/16 00:54:26;;;;;;;5.32;4.60;;;;;;;17.62;43.85;101232.84;678319;29;1227;-76
2022/06/16 00:54:58;;;;;;;4.80;4.30;;;;;;;17.56;43.94;101233.69;679720;29;1099;-77
2022/06/16 00:55:19;;;;;;;5.90;4.50;;;;;;;17.52;43.89;101230.16;684693;28;1988;-77
2022/06/16 00:55:40;;;;;;;6.78;4.72;;;;;;;17.50;44.03;101221.34;682486;29;1083;-77
2022/06/16 00:56:01;;;;;;;6.32;5.07;;;;;;;17.59;43.87;101235.47;684954;28;1101;-77
2022/06/16 00:56:22;;;;;;;6.00;5.00;;;;;;;17.56;43.95;101227.56;679478;29;1448;-77
2022/06/16 00:57:05;;;;;;;6.00;4.95;;;;;;;17.60;43.80;101234.59;679728;29;991;-77
2022/06/16 00:57:33;;;;;;;6.25;5.00;;;;;;;17.48;43.88;101217.84;681951;29;1700;-77
2022/06/16 00:57:54;;;;;;;6.20;4.93;;;;;;;17.52;44.08;101224.88;679832;29;859;-76
2022/06/16 00:58:16;;;;;;;6.60;4.90;;;;;;;17.51;43.87;101228.41;679294;29;1244;-77
2022/06/16 00:58:40;;;;;;;8.00;4.97;;;;;;;17.55;44.11;101229.28;682218;29;1182;-77
2022/06/16 00:59:05;;;;;;;6.43;4.60;;;;;;;17.53;44.01;101231.06;681523;29;1364;-77
2022/06/16 00:59:26;;;;;;;5.80;4.70;;;;;;;17.46;44.04;101219.56;680378;29;1341;-77
2022/06/16 00:59:48;;;;;;;5.28;4.70;;;;;;;17.41;44.07;101216.03;683160;28;1202;-76
2022/06/16 01:00:57;;;;;;;6.28;4.60;;;;;;;17.39;44.30;101223.03;674398;29;1378;-77
2022/06/16 01:01:21;;;;;;;6.30;4.90;;;;;;;17.36;44.23;101212.47;682640;28;1094;-77
2022/06/16 01:01:44;;;;;;;7.28;5.00;;;;;;;17.38;44.32;101215.97;681839;29;1050;-77
2022/06/16 01:02:06;;;;;;;7.88;5.10;;;;;;;17.41;44.27;101226.56;679582;29;1442;-77
2022/06/16 01:02:29;;;;;;;7.53;5.10;;;;;;;17.35;44.37;101215.97;679256;29;1444;-77
2022/06/16 01:02:52;;;;;;;7.00;5.30;;;;;;;17.32;44.52;101210.69;679682;29;890;-77
2022/06/16 01:04:51;;;;;;;8.65;5.20;;;;;;;17.38;44.54;101219.53;676587;29;1712;-77
2022/06/16 01:04:54;;;;;;;6.68;5.45;;;;;;;17.34;44.49;101203.66;684443;28;1396;-77
2022/06/16 01:05:15;;;;;;;6.57;5.07;;;;;;;17.34;44.62;101209.81;681776;29;1209;-76
2022/06/16 01:05:36;;;;;;;7.40;5.38;;;;;;;17.43;44.58;101218.66;682354;29;998;-77
2022/06/16 01:05:57;;;;;;;7.20;5.60;;;;;;;17.34;44.51;101209.81;679760;29;1221;-77
2022/06/16 01:06:19;;;;;;;7.77;5.60;;;;;;;17.42;44.47;101228.34;682142;28;1834;-76
2022/06/16 01:06:40;;;;;;;7.65;5.72;;;;;;;17.35;44.60;101211.59;687044;28;1241;-77
2022/06/16 01:07:06;;;;;;;6.93;5.32;;;;;;;17.32;44.65;101208.91;680232;29;1458;-77
2022/06/16 01:07:32;;;;;;;6.13;5.22;;;;;;;17.35;44.58;101221.25;681929;29;2061;-77
2022/06/16 01:07:55;;;;;;;6.90;5.47;;;;;;;17.38;44.81;101221.25;685097;28;1024;-76
2022/06/16 01:08:16;;;;;;;7.45;5.50;;;;;;;17.33;44.63;101212.44;686043;28;1435;-77
2022/06/16 01:08:37;;;;;;;7.18;5.30;;;;;;;17.33;44.69;101212.44;683884;28;1183;-77
2022/06/16 01:09:11;;;;;;;7.53;5.20;;;;;;;17.39;44.70;101231.84;676588;29;1349;-78
2022/06/16 01:09:33;;;;;;;8.23;5.20;;;;;;;17.40;44.62;101230.09;678719;29;1408;-77
2022/06/16 01:09:55;;;;;;;7.15;5.10;;;;;;;17.30;44.60;101209.78;684776;28;1071;-77
2022/06/16 01:10:17;;;;;;;6.40;5.10;;;;;;;17.38;44.63;101223.91;682401;28;1191;-77
2022/06/16 01:10:47;;;;;;;5.97;5.40;;;;;;;17.36;44.83;101230.94;682257;29;1371;-77
2022/06/16 01:13:41;;;;;;;5.90;5.30;;;;;;;17.29;44.71;101215.94;685358;28;1314;-77
2022/06/16 01:13:53;;;;;;;9.20;5.30;;;;;;;17.23;44.84;101217.63;684108;28;1649;-77
2022/06/16 01:14:29;;;;;;;7.88;5.50;;;;;;;17.26;44.83;101222.06;681130;29;1209;-77
2022/06/16 01:15:00;;;;;;;7.20;5.85;;;;;;;17.30;45.12;101225.59;679680;29;897;-77
2022/06/16 01:15:44;;;;;;;6.65;5.45;;;;;;;17.30;45.09;101215.94;681487;28;1662;-77
2022/06/16 01:16:31;;;;;;;7.28;5.50;;;;;;;17.31;45.09;101224.72;680311;29;1148;-77
2022/06/16 01:16:56;;;;;;;8.10;5.85;;;;;;;17.19;44.90;101210.56;674468;29;1293;-77
2022/06/16 01:17:54;;;;;;;7.90;6.00;;;;;;;17.30;45.06;101223.84;678290;29;1062;-77
2022/06/16 01:18:39;;;;;;;9.88;5.55;;;;;;;17.29;45.08;101221.19;679832;29;1856;-77
2022/06/16 01:19:11;;;;;;;7.95;5.72;;;;;;;17.25;45.03;101229.09;677739;29;1063;-77
2022/06/16 01:19:48;;;;;;;8.43;5.50;;;;;;;17.22;45.03;101229.06;681152;29;1185;-77
2022/06/16 01:20:19;;;;;;;6.50;5.25;;;;;;;17.18;45.00;101229.00;685357;28;1789;-77
2022/06/16 01:20:50;;;;;;;6.43;5.15;;;;;;;17.09;45.18;101224.56;684912;28;1449;-77
2022/06/16 01:21:20;;;;;;;6.63;5.45;;;;;;;17.02;45.37;101220.97;678049;29;1862;-77
2022/06/16 01:21:44;;;;;;;6.75;5.40;;;;;;;17.09;45.45;101230.69;679570;29;1142;-76
2022/06/16 01:22:15;;;;;;;6.72;5.25;;;;;;;17.02;45.44;101228.00;680602;29;1194;-77
2022/06/16 01:22:51;;;;;;;6.55;5.45;;;;;;;17.04;45.49;101231.53;676990;29;1150;-77
2022/06/16 01:23:31;;;;;;;6.53;5.40;;;;;;;16.99;45.67;101240.25;678880;29;1782;-77
2022/06/16 01:24:27;;;;;;;6.38;4.90;;;;;;;16.94;45.62;101220.91;678629;29;903;-77
2022/06/16 01:25:23;;;;;;;7.53;5.13;;;;;;;16.93;45.75;101229.69;682302;29;1174;-77
2022/06/16 01:26:05;;;;;;;9.65;5.60;;;;;;;16.89;45.79;101227.03;681747;28;1207;-77
2022/06/16 01:26:55;;;;;;;8.88;5.50;;;;;;;16.84;46.06;101224.34;676571;29;1068;-77
2022/06/16 01:27:34;;;;;;;7.20;5.35;;;;;;;16.84;46.01;101229.63;681732;28;1650;-77
2022/06/16 01:28:02;;;;;;;7.57;5.45;;;;;;;16.82;46.02;101231.31;679134;29;939;-77
2022/06/16 01:28:30;;;;;;;10.77;5.45;;;;;;;16.77;46.25;101223.38;681260;29;1870;-77
2022/06/16 01:29:14;;;;;;;11.23;5.80;;;;;;;16.71;46.23;101218.03;684844;28;1196;-77
2022/06/16 01:29:59;;;;;;;6.00;5.40;;;;;;;16.76;46.36;101228.63;673652;29;1273;-76
2022/06/16 01:30:52;;;;;;;7.43;5.60;;;;;;;16.72;46.40;101219.84;668812;29;1160;-77
2022/06/16 01:31:27;;;;;;;9.77;5.80;;;;;;;16.60;46.44;101199.53;675502;29;1832;-76
2022/06/16 01:32:23;;;;;;;9.75;6.22;;;;;;;16.72;46.85;101222.47;681188;29;1547;-76
2022/06/16 01:32:56;;;;;;;7.15;5.50;;;;;;;16.72;46.71;101214.56;684965;28;1329;-77
2022/06/16 01:33:39;;;;;;;6.10;5.50;;;;;;;16.64;46.73;101216.22;679329;29;1243;-76
2022/06/16 01:34:26;;;;;;;7.20;5.97;;;;;;;16.69;46.73;101214.53;680565;29;1234;-77
2022/06/16 01:35:11;;;;;;;6.80;6.10;;;;;;;16.75;46.67;101216.31;685499;28;1009;-77
2022/06/16 01:36:04;;;;;;;6.78;6.07;;;;;;;16.74;46.72;101215.47;680242;29;1894;-77
2022/06/16 01:36:28;;;;;;;6.70;5.53;;;;;;;16.77;46.54;101214.59;679959;29;1654;-76
2022/06/16 01:36:57;;;;;;;9.45;5.88;;;;;;;16.71;46.44;101207.50;685588;28;863;-77
2022/06/16 01:37:35;;;;;;;9.60;5.78;;;;;;;16.78;46.57;101211.97;685207;28;2082;-77
2022/06/16 01:38:14;;;;;;;8.52;5.80;;;;;;;16.74;46.61;101202.28;682666;29;2038;-77
2022/06/16 01:39:14;;;;;;;7.97;5.90;;;;;;;16.76;46.50;101200.53;682707;29;1188;-77
2022/06/16 01:39:49;;;;;;;9.05;6.75;;;;;;;16.82;46.50;101207.59;676927;29;2066;-77
2022/06/16 01:40:32;;;;;;;8.55;6.50;;;;;;;16.83;46.48;101218.19;679914;29;1146;-76
2022/06/16 01:41:10;;;;;;;6.70;6.00;;;;;;;16.77;46.20;101206.72;685380;28;808;-77
2022/06/16 01:41:40;;;;;;;7.15;6.10;;;;;;;16.73;46.33;101200.53;688082;28;1248;-76
2022/06/16 01:42:14;;;;;;;8.02;6.07;;;;;;;16.78;46.35;101208.47;687576;28;1102;-77
2022/06/16 01:42:40;;;;;;;7.70;5.82;;;;;;;16.81;46.29;101219.03;685447;28;1438;-77
2022/06/16 01:43:22;;;;;;;6.25;5.50;;;;;;;16.80;46.38;101225.16;682448;29;1452;-77
2022/06/16 01:44:17;;;;;;;8.77;6.07;;;;;;;16.74;46.44;101217.19;685332;28;1504;-77
2022/06/16 01:45:08;;;;;;;10.40;6.40;;;;;;;16.75;46.71;101221.59;669421;29;1246;-77
2022/06/16 01:45:37;;;;;;;7.10;5.90;;;;;;;16.71;46.65;101218.94;675840;29;1218;-76
2022/06/16 01:46:32;;;;;;;7.38;5.90;;;;;;;16.70;46.67;101219.81;685521;28;1545;-77
2022/06/16 01:47:09;;;;;;;6.85;5.53;;;;;;;16.68;46.45;101215.41;674713;29;1933;-77
2022/06/16 01:47:32;;;;;;;6.07;5.47;;;;;;;16.77;46.48;101227.78;679949;29;1066;-76
2022/06/16 01:47:53;;;;;;;5.95;5.35;;;;;;;16.68;46.60;101216.28;680052;29;1235;-76
2022/06/16 01:48:19;;;;;;;5.95;5.35;;;;;;;16.78;46.60;101229.56;682468;29;1546;-77
2022/06/16 01:48:43;;;;;;;7.90;5.97;;;;;;;16.70;46.46;101217.19;682794;29;1380;-77
2022/06/16 01:49:16;;;;;;;7.95;6.10;;;;;;;16.76;46.54;101226.00;678932;29;1180;-77
2022/06/16 01:49:44;;;;;;;8.38;6.00;;;;;;;16.72;46.65;101223.34;678301;29;1112;-77
2022/06/16 01:50:11;;;;;;;7.80;5.80;;;;;;;16.79;46.42;101231.31;682718;29;1279;-77
2022/06/16 01:50:36;;;;;;;7.25;5.80;;;;;;;16.76;46.57;101215.44;682033;29;1071;-76
2022/06/16 01:51:04;;;;;;;6.80;5.70;;;;;;;16.72;46.55;101220.72;682745;29;1387;-77
2022/06/16 01:51:31;;;;;;;6.10;5.50;;;;;;;16.80;46.45;101222.53;684375;28;1554;-77
2022/06/16 01:52:01;;;;;;;6.45;5.53;;;;;;;16.70;46.41;101217.19;682731;29;883;-77
2022/06/16 01:52:32;;;;;;;8.15;5.68;;;;;;;16.71;46.36;101210.13;682268;28;1931;-76
2022/06/16 01:53:03;;;;;;;7.53;5.63;;;;;;;16.79;46.40;101231.31;685520;28;1105;-77
2022/06/16 01:53:35;;;;;;;6.68;5.60;;;;;;;16.70;46.49;101216.28;684367;28;1240;-76
2022/06/16 01:54:02;;;;;;;7.30;5.55;;;;;;;16.74;46.27;101227.75;684032;28;1396;-76
2022/06/16 01:54:28;;;;;;;6.88;5.43;;;;;;;16.74;46.18;101233.00;682527;29;2038;-76
2022/06/16 01:54:59;;;;;;;6.30;5.50;;;;;;;16.75;46.32;101234.78;681443;29;897;-76
2022/06/16 01:55:27;;;;;;;6.30;5.70;;;;;;;16.68;46.46;101229.47;679748;29;1594;-77
2022/06/16 01:55:56;;;;;;;6.35;5.75;;;;;;;16.64;46.32;101222.38;680081;29;1261;-77
2022/06/16 01:56:24;;;;;;;5.70;5.20;;;;;;;16.68;46.34;101233.84;682741;28;1853;-77
2022/06/16 01:56:53;;;;;;;6.00;5.35;;;;;;;16.72;46.36;101236.53;688148;28;986;-77
2022/06/16 01:57:48;;;;;;;7.88;5.57;;;;;;;16.71;46.54;101239.13;685180;28;1704;-77
2022/06/16 01:58:15;;;;;;;7.07;5.60;;;;;;;16.64;46.63;101230.28;684174;28;1195;-77
2022/06/16 01:59:01;;;;;;;6.18;5.30;;;;;;;16.68;46.67;101241.75;682275;29;1724;-76
2022/06/16 01:59:27;;;;;;;6.28;5.40;;;;;;;16.66;46.52;101241.72;683959;28;868;-76
2022/06/16 02:00:01;;;;;;;6.38;5.70;;;;;;;16.67;46.65;101243.47;679644;29;1206;-77
2022/06/16 02:00:25;;;;;;;7.28;5.90;;;;;;;16.57;46.66;101223.19;683352;28;1675;-77
2022/06/16 02:00:54;;;;;;;8.35;6.00;;;;;;;16.60;46.79;101235.50;680126;29;902;-77
2022/06/16 02:01:20;;;;;;;8.27;6.03;;;;;;;16.65;46.41;101242.59;681176;29;1250;-77
2022/06/16 02:01:47;;;;;;;6.65;5.88;;;;;;;16.66;46.69;101246.13;680053;29;1203;-76
2022/06/16 02:02:13;;;;;;;6.55;5.93;;;;;;;16.60;46.96;101238.16;683443;28;1301;-76
2022/06/16 02:02:37;;;;;;;6.55;5.85;;;;;;;16.64;46.92;101248.72;681071;29;1253;-77
2022/06/16 02:03:05;;;;;;;6.60;5.82;;;;;;;16.64;47.10;101243.47;684456;28;1249;-76
2022/06/16 02:03:41;;;;;;;6.55;5.60;;;;;;;16.59;47.01;101237.25;681890;29;1587;-77
2022/06/16 02:04:15;;;;;;;8.63;5.85;;;;;;;16.62;46.95;101245.22;680185;29;1975;-77
2022/06/16 02:04:56;;;;;;;9.40;6.38;;;;;;;16.62;46.98;101247.84;682276;28;1029;-77
2022/06/16 02:05:28;;;;;;;9.35;5.70;;;;;;;16.64;46.90;101251.38;679761;29;1790;-76
2022/06/16 02:05:54;;;;;;;9.40;5.40;;;;;;;16.58;47.04;101251.28;683848;28;1437;-76
2022/06/16 02:06:37;;;;;;;7.63;5.30;;;;;;;16.63;47.13;101254.88;683820;28;1709;-77
2022/06/16 02:07:03;;;;;;;5.97;5.38;;;;;;;16.58;46.89;101256.56;677280;29;1259;-76
2022/06/16 02:07:36;;;;;;;6.85;5.60;;;;;;;16.57;46.99;101257.44;681829;29;799;-76
2022/06/16 02:08:19;;;;;;;7.20;5.50;;;;;;;16.65;46.70;101258.41;680624;29;1199;-76
2022/06/16 02:08:48;;;;;;;6.13;5.10;;;;;;;16.60;46.59;101246.06;684159;28;1283;-76
2022/06/16 02:09:15;;;;;;;5.80;5.10;;;;;;;16.68;46.62;101260.19;683917;28;1172;-77
2022/06/16 02:09:42;;;;;;;5.65;5.05;;;;;;;16.67;46.42;101264.56;681720;28;1218;-76
2022/06/16 02:10:17;;;;;;;6.45;5.10;;;;;;;16.66;46.13;101254.91;684468;28;1164;-77
2022/06/16 02:10:49;;;;;;;7.38;5.18;;;;;;;16.67;46.44;101259.28;684064;28;972;-76
2022/06/16 02:11:15;;;;;;;7.22;5.18;;;;;;;16.68;46.49;101258.44;682018;29;1056;-77
2022/06/16 02:11:37;;;;;;;6.32;5.20;;;;;;;16.61;46.45;101242.53;677434;29;1054;-77
2022/06/16 02:12:11;;;;;;;5.72;5.10;;;;;;;16.69;46.56;101260.22;681814;28;1374;-77
2022/06/16 02:13:28;;;;;;;8.68;5.00;;;;;;;16.62;46.43;101234.66;678172;29;1640;-77
2022/06/16 02:14:12;;;;;;;8.90;5.30;;;;;;;16.61;46.17;101240.81;674896;29;1033;-76
2022/06/16 02:14:41;;;;;;;6.57;5.88;;;;;;;16.57;46.31;101234.63;674526;29;1250;-77
2022/06/16 02:15:37;;;;;;;6.43;5.57;;;;;;;16.70;46.33;101258.44;676273;29;1442;-77
2022/06/16 02:16:06;;;;;;;7.65;5.60;;;;;;;16.67;46.35;101248.75;682706;29;1194;-77
2022/06/16 02:16:33;;;;;;;6.28;5.50;;;;;;;16.64;46.47;101243.47;681616;29;1614;-77
2022/06/16 02:16:55;;;;;;;8.10;5.43;;;;;;;16.67;46.29;101243.47;685393;28;1123;-77